Pelican Rapids, Canada
Current Conditions -  °F | °C
As of 6:00 PM on Wednesday 28 Jan 2015 (Local Time) from CYQD Reporting Station
Light Snow Light Snow  
Wind Chill: -12°   Ceiling: 1500
Heat Index:   Visibility: 12mi
Dew Point: -2°   Wind: 8mph
Humidity: 85%   Direction: 330°NNW
Pressure: 30.22"   Gusts: NA
Location:  52.62°N, 100.73°W
Report Text: CYQD 290000Z 33007KT 12SM -SN OVC015 M17/M19 A3022 RMK SC8 SLP263
Loading
Personal Weather Stations






























Interactive Weather Map New forecast layout! Learn more

10-Day Weather Forecast

Advertisements
Track Severe Weather on mobile